createdAt,value
2019-04-28T00:01:14.597Z,10.59
2019-04-28T00:03:44.402Z,10.81
2019-04-28T00:06:14.092Z,11.01
2019-04-28T00:08:43.653Z,10.40
2019-04-28T00:11:13.301Z,10.63
2019-04-28T00:13:42.943Z,10.43
2019-04-28T00:16:12.639Z,10.38
2019-04-28T00:18:42.398Z,10.19
2019-04-28T00:21:42.999Z,10.32
2019-04-28T00:24:31.611Z,10.03
2019-04-28T00:27:03.513Z,9.70
2019-04-28T00:29:40.280Z,9.71
2019-04-28T00:32:04.779Z,9.37
2019-04-28T00:34:34.512Z,9.56
2019-04-28T00:37:21.911Z,9.73
2019-04-28T00:39:51.555Z,9.66
2019-04-28T00:42:22.773Z,9.59
2019-04-28T00:44:52.521Z,9.78
2019-04-28T00:47:22.299Z,9.94
2019-04-28T00:49:52.107Z,9.79
2019-04-28T00:52:22.257Z,9.86
2019-04-28T00:54:52.553Z,9.95
2019-04-28T00:57:22.543Z,9.64
2019-04-28T00:59:58.068Z,9.78
2019-04-28T01:02:43.051Z,9.76
2019-04-28T01:05:12.617Z,9.87
2019-04-28T01:07:42.264Z,9.84
2019-04-28T01:10:12.453Z,9.92
2019-04-28T01:12:42.194Z,9.47
2019-04-28T01:15:15.456Z,9.66
2019-04-28T01:17:57.216Z,9.32
2019-04-28T01:20:27.013Z,9.58
2019-04-28T01:22:56.701Z,9.43
2019-04-28T01:25:26.426Z,9.29
2019-04-28T01:27:57.204Z,9.33
2019-04-28T01:30:44.510Z,9.34
2019-04-28T01:33:40.543Z,9.22
2019-04-28T01:36:10.424Z,9.24
2019-04-28T01:38:40.328Z,9.02
2019-04-28T01:41:09.990Z,8.95
2019-04-28T01:43:41.664Z,8.91
2019-04-28T01:46:11.241Z,9.12
2019-04-28T01:48:40.910Z,8.98
2019-04-28T01:51:10.472Z,8.84
2019-04-28T01:53:40.132Z,9.11
2019-04-28T01:56:10.571Z,9.21
2019-04-28T01:58:40.505Z,9.15
2019-04-28T02:01:10.725Z,9.06
2019-04-28T02:03:40.618Z,9.08
2019-04-28T02:06:10.275Z,9.34
2019-04-28T02:08:40.104Z,9.28
2019-04-28T02:11:10.234Z,9.45
2019-04-28T02:13:39.992Z,9.59
2019-04-28T02:16:09.861Z,9.53
2019-04-28T02:18:39.984Z,9.61
2019-04-28T02:21:22.480Z,9.45
2019-04-28T02:23:52.136Z,9.47
2019-04-28T02:26:21.990Z,9.43
2019-04-28T02:28:51.723Z,9.36
2019-04-28T02:31:24.402Z,9.37
2019-04-28T02:33:53.902Z,9.27
2019-04-28T02:36:23.610Z,9.23
2019-04-28T02:38:53.277Z,9.23
2019-04-28T02:41:23.094Z,9.25
2019-04-28T02:43:52.800Z,9.28
2019-04-28T02:46:22.918Z,9.28
2019-04-28T02:48:54.135Z,9.34
2019-04-28T02:51:30.827Z,9.37
2019-04-28T02:54:00.755Z,9.27
2019-04-28T02:56:30.891Z,9.32
2019-04-28T02:59:01.128Z,9.32
2019-04-28T03:01:31.086Z,9.31
2019-04-28T03:04:00.694Z,9.29
2019-04-28T03:06:30.749Z,9.27
2019-04-28T03:09:00.480Z,9.24
2019-04-28T03:11:31.423Z,9.22
2019-04-28T03:14:01.268Z,9.19
2019-04-28T03:16:30.878Z,9.16
2019-04-28T03:19:01.385Z,9.08
2019-04-28T03:21:31.494Z,9.07
2019-04-28T03:24:01.409Z,9.06
2019-04-28T03:26:56.678Z,9.05
2019-04-28T03:29:36.021Z,9.03
2019-04-28T03:32:32.521Z,9.00
2019-04-28T03:34:53.928Z,8.97
2019-04-28T03:37:23.965Z,8.98
2019-04-28T03:39:52.771Z,9.01
2019-04-28T03:42:22.622Z,9.06
2019-04-28T03:44:52.811Z,9.05
2019-04-28T03:47:22.499Z,9.07
2019-04-28T03:49:52.138Z,9.10
2019-04-28T03:52:21.797Z,9.12
2019-04-28T03:54:51.539Z,9.09
2019-04-28T03:57:22.013Z,9.03
2019-04-28T03:59:51.742Z,9.00
2019-04-28T04:02:23.692Z,9.05
2019-04-28T04:04:53.079Z,9.08
2019-04-28T04:07:23.075Z,9.12
2019-04-28T04:10:11.193Z,9.12
2019-04-28T04:12:50.898Z,9.11
2019-04-28T04:15:55.019Z,9.03
2019-04-28T04:18:40.682Z,8.97
2019-04-28T04:21:11.362Z,8.93
2019-04-28T04:23:41.353Z,8.90
2019-04-28T04:26:11.808Z,8.86
2019-04-28T04:28:41.908Z,8.86
2019-04-28T04:31:11.761Z,8.81
2019-04-28T04:33:41.604Z,8.82
2019-04-28T04:36:12.142Z,8.82
2019-04-28T04:38:45.814Z,8.71
2019-04-28T04:41:13.140Z,8.54
2019-04-28T04:43:42.810Z,8.78
2019-04-28T04:46:15.187Z,8.90
2019-04-28T04:48:44.883Z,8.76
2019-04-28T04:51:14.506Z,8.92
2019-04-28T04:53:44.062Z,9.06
2019-04-28T04:56:13.691Z,9.13
2019-04-28T04:58:43.478Z,9.19
2019-04-28T05:01:22.723Z,9.27
2019-04-28T05:03:54.487Z,9.26
2019-04-28T05:06:37.206Z,9.38
2019-04-28T05:09:10.218Z,9.55
2019-04-28T05:11:40.381Z,9.88
2019-04-28T05:14:12.034Z,10.36
2019-04-28T05:16:41.474Z,10.57
2019-04-28T05:19:11.093Z,10.77
2019-04-28T05:21:40.759Z,11.08
2019-04-28T05:24:40.307Z,11.47
2019-04-28T05:27:10.212Z,11.88
2019-04-28T05:29:39.987Z,12.38
2019-04-28T05:32:10.760Z,12.79
2019-04-28T05:34:46.619Z,13.15
2019-04-28T05:37:11.898Z,13.53
2019-04-28T05:39:41.569Z,13.97
2019-04-28T05:42:11.401Z,14.43
2019-04-28T05:44:41.088Z,14.33
2019-04-28T05:47:10.843Z,13.62
2019-04-28T05:50:10.508Z,13.18
2019-04-28T05:53:01.793Z,12.79
2019-04-28T05:55:41.859Z,12.12
2019-04-28T05:58:25.488Z,11.84
2019-04-28T06:01:13.932Z,11.72
2019-04-28T06:03:44.063Z,11.65
2019-04-28T06:06:13.765Z,11.75
2019-04-28T06:09:02.313Z,12.02
2019-04-28T06:11:33.504Z,12.00
2019-04-28T06:14:03.168Z,11.84
2019-04-28T06:16:32.878Z,11.92
2019-04-28T06:19:02.563Z,11.97
2019-04-28T06:21:32.223Z,12.05
2019-04-28T06:24:01.891Z,11.81
2019-04-28T06:26:31.452Z,11.87
2019-04-28T06:29:01.068Z,12.02
2019-04-28T06:31:30.668Z,12.04
2019-04-28T06:34:00.422Z,12.11
2019-04-28T06:36:30.077Z,12.29
2019-04-28T06:38:59.635Z,12.37
2019-04-28T06:41:29.296Z,12.27
2019-04-28T06:43:59.046Z,12.24
2019-04-28T06:46:28.715Z,12.42
2019-04-28T06:48:58.369Z,12.10
2019-04-28T06:51:28.035Z,10.74
2019-04-28T06:53:57.819Z,9.96
2019-04-28T06:56:27.459Z,10.12
2019-04-28T06:58:59.060Z,10.84
2019-04-28T07:01:28.504Z,11.57
2019-04-28T07:03:58.064Z,12.24
2019-04-28T07:06:27.719Z,13.46
2019-04-28T07:08:57.384Z,14.36
2019-04-28T07:11:26.916Z,15.51
2019-04-28T07:13:56.701Z,16.80
2019-04-28T07:16:26.390Z,17.36
2019-04-28T07:18:56.111Z,17.12
2019-04-28T07:21:53.266Z,17.28
2019-04-28T07:24:23.065Z,17.78
2019-04-28T07:26:52.651Z,19.06
2019-04-28T07:29:22.409Z,18.94
2019-04-28T07:31:52.139Z,19.55
2019-04-28T07:34:21.832Z,19.69
2019-04-28T07:36:51.487Z,18.35
2019-04-28T07:39:21.147Z,18.72
2019-04-28T07:41:50.791Z,17.09
2019-04-28T07:44:20.592Z,17.42
2019-04-28T07:46:50.233Z,17.07
2019-04-28T07:49:19.900Z,17.71
2019-04-28T07:51:59.711Z,17.88
2019-04-28T07:54:49.818Z,17.39
2019-04-28T07:57:19.704Z,16.92
2019-04-28T07:59:49.387Z,15.33
2019-04-28T08:02:19.096Z,14.84
2019-04-28T08:04:48.790Z,14.58
2019-04-28T08:07:19.837Z,16.06
2019-04-28T08:09:49.539Z,20.34
2019-04-28T08:12:19.177Z,19.52
2019-04-28T08:14:48.840Z,18.81
2019-04-28T08:17:19.691Z,18.56
2019-04-28T08:19:49.387Z,21.24
2019-04-28T08:22:19.137Z,23.10
2019-04-28T08:24:48.783Z,20.29
2019-04-28T08:27:19.509Z,23.97
2019-04-28T08:29:58.346Z,24.93
2019-04-28T08:32:38.639Z,22.85
2019-04-28T08:35:08.295Z,21.46
2019-04-28T08:37:37.896Z,20.25
2019-04-28T08:40:07.438Z,18.55
2019-04-28T08:42:37.114Z,18.12
2019-04-28T08:45:07.294Z,16.50
2019-04-28T08:47:36.932Z,15.58
2019-04-28T08:50:06.716Z,15.78
2019-04-28T08:52:36.622Z,14.91
2019-04-28T08:55:06.359Z,14.16
2019-04-28T08:57:36.029Z,14.61
2019-04-28T09:00:06.474Z,14.61
2019-04-28T09:02:36.170Z,14.55
2019-04-28T09:05:05.803Z,13.87
2019-04-28T09:07:35.476Z,13.66
2019-04-28T09:10:05.623Z,14.05
2019-04-28T09:12:35.325Z,14.53
2019-04-28T09:15:05.258Z,14.99
2019-04-28T09:17:34.941Z,15.58
2019-04-28T09:20:04.772Z,16.25
2019-04-28T09:22:34.457Z,16.89
2019-04-28T09:25:04.160Z,17.29
2019-04-28T09:27:33.847Z,18.16
2019-04-28T09:30:03.447Z,19.91
2019-04-28T09:32:33.223Z,21.00
2019-04-28T09:35:02.867Z,19.16
2019-04-28T09:37:32.534Z,19.02
2019-04-28T09:40:09.654Z,19.32
2019-04-28T09:42:46.939Z,17.97
2019-04-28T09:45:20.409Z,16.34
2019-04-28T09:47:50.079Z,16.75
2019-04-28T09:50:19.672Z,15.56
2019-04-28T09:52:49.388Z,14.69
2019-04-28T09:55:18.947Z,14.51
2019-04-28T09:57:48.607Z,15.43
2019-04-28T10:00:18.594Z,15.64
2019-04-28T10:02:48.266Z,15.33
2019-04-28T10:05:17.892Z,14.84
2019-04-28T10:08:06.448Z,14.99
2019-04-28T10:10:36.107Z,15.26
2019-04-28T10:13:05.723Z,14.89
2019-04-28T10:15:35.507Z,15.13
2019-04-28T10:18:05.173Z,15.60
2019-04-28T10:20:34.829Z,15.88
2019-04-28T10:23:04.467Z,15.93
2019-04-28T10:25:34.147Z,16.36
2019-04-28T10:28:03.817Z,16.79
2019-04-28T10:30:33.444Z,17.37
2019-04-28T10:33:03.109Z,17.97
2019-04-28T10:35:32.754Z,18.48
2019-04-28T10:38:02.404Z,18.42
2019-04-28T10:40:58.183Z,17.92
2019-04-28T10:43:27.973Z,17.55
2019-04-28T10:45:57.591Z,16.95
2019-04-28T10:48:27.385Z,15.87
2019-04-28T10:50:57.146Z,15.30
2019-04-28T10:53:26.720Z,15.01
2019-04-28T10:55:56.355Z,15.54
2019-04-28T10:58:26.027Z,15.61
2019-04-28T11:00:55.564Z,15.72
2019-04-28T11:03:25.227Z,15.22
2019-04-28T11:05:54.911Z,15.66
2019-04-28T11:08:43.413Z,16.21
2019-04-28T11:11:23.883Z,15.07
2019-04-28T11:13:53.547Z,14.55
2019-04-28T11:16:32.617Z,13.05
2019-04-28T11:19:02.212Z,12.44
2019-04-28T11:21:31.856Z,12.07
2019-04-28T11:24:01.616Z,12.10
2019-04-28T11:26:31.280Z,12.20
2019-04-28T11:29:01.120Z,12.41
2019-04-28T11:31:30.685Z,12.68
2019-04-28T11:34:25.135Z,12.51
2019-04-28T11:36:54.863Z,12.77
2019-04-28T11:39:32.173Z,13.38
2019-04-28T11:42:01.972Z,13.44
2019-04-28T11:44:31.788Z,12.80
2019-04-28T11:47:01.612Z,13.49
2019-04-28T11:49:31.391Z,13.94
2019-04-28T11:52:01.081Z,13.57
2019-04-28T11:54:30.739Z,14.51
2019-04-28T11:57:00.394Z,14.48
2019-04-28T11:59:30.060Z,14.80
2019-04-28T12:01:59.759Z,14.28
2019-04-28T12:04:29.376Z,13.77
2019-04-28T12:06:59.155Z,13.70
2019-04-28T12:10:03.822Z,13.62
2019-04-28T12:12:59.233Z,13.58
2019-04-28T12:15:50.331Z,13.90
2019-04-28T12:18:44.627Z,13.86
2019-04-28T12:21:14.451Z,14.21
2019-04-28T12:23:44.175Z,14.16
2019-04-28T12:26:13.902Z,14.15
2019-04-28T12:28:43.462Z,14.23
2019-04-28T12:31:13.179Z,14.21
2019-04-28T12:33:42.809Z,14.45
2019-04-28T12:36:12.465Z,14.67
2019-04-28T12:38:42.124Z,14.33
2019-04-28T12:41:11.761Z,14.85
2019-04-28T12:43:41.326Z,14.84
2019-04-28T12:46:11.134Z,15.25
2019-04-28T12:48:40.871Z,15.26
2019-04-28T12:51:10.662Z,15.01
2019-04-28T12:53:40.326Z,15.92
2019-04-28T12:56:10.049Z,15.54
2019-04-28T12:58:39.646Z,15.63
2019-04-28T13:01:31.604Z,15.96
2019-04-28T13:04:23.331Z,15.36
2019-04-28T13:07:03.297Z,15.69
2019-04-28T13:09:32.921Z,16.08
2019-04-28T13:12:02.569Z,15.40
2019-04-28T13:14:32.421Z,15.58
2019-04-28T13:17:02.213Z,16.27
2019-04-28T13:19:31.845Z,16.21
2019-04-28T13:22:01.513Z,16.42
2019-04-28T13:24:31.296Z,15.89
2019-04-28T13:27:00.955Z,16.98
2019-04-28T13:29:30.506Z,16.84
2019-04-28T13:32:00.145Z,17.47
2019-04-28T13:34:31.584Z,18.56
2019-04-28T13:37:01.316Z,18.32
2019-04-28T13:39:42.898Z,18.32
2019-04-28T13:42:12.714Z,16.14
2019-04-28T13:45:03.993Z,15.82
2019-04-28T13:47:33.756Z,16.80
2019-04-28T13:50:12.659Z,17.59
2019-04-28T13:52:42.397Z,16.83
2019-04-28T13:55:34.291Z,18.16
2019-04-28T13:58:04.797Z,16.94
2019-04-28T14:00:49.278Z,17.57
2019-04-28T14:03:43.917Z,18.82
2019-04-28T14:06:27.701Z,18.44
2019-04-28T14:08:47.611Z,18.83
2019-04-28T14:11:17.258Z,17.80
2019-04-28T14:13:46.955Z,18.91
2019-04-28T14:16:16.652Z,19.51
2019-04-28T14:18:46.361Z,20.18
2019-04-28T14:21:16.010Z,20.56
2019-04-28T14:23:45.707Z,20.43
2019-04-28T14:26:15.326Z,18.09
2019-04-28T14:28:45.018Z,16.73
2019-04-28T14:31:14.738Z,15.24
2019-04-28T14:33:44.451Z,14.42
2019-04-28T14:36:14.091Z,14.08
2019-04-28T14:38:43.930Z,13.71
2019-04-28T14:41:13.673Z,13.92
2019-04-28T14:43:43.255Z,13.68
2019-04-28T14:46:13.200Z,13.73
2019-04-28T14:48:42.845Z,13.82
2019-04-28T14:51:12.439Z,14.20
2019-04-28T14:53:42.301Z,13.96
2019-04-28T14:56:12.136Z,14.33
2019-04-28T14:58:41.825Z,14.91
2019-04-28T15:01:29.136Z,15.04
2019-04-28T15:04:00.514Z,15.03
2019-04-28T15:06:35.549Z,14.34
2019-04-28T15:09:27.036Z,14.24
2019-04-28T15:12:00.188Z,13.63
2019-04-28T15:14:30.011Z,13.57
2019-04-28T15:16:59.715Z,13.62
2019-04-28T15:19:29.357Z,13.66
2019-04-28T15:21:59.037Z,13.98
2019-04-28T15:24:28.802Z,14.34
2019-04-28T15:26:58.452Z,15.16
2019-04-28T15:29:28.251Z,14.69
2019-04-28T15:31:57.851Z,14.68
2019-04-28T15:34:27.541Z,14.84
2019-04-28T15:37:09.174Z,14.79
2019-04-28T15:39:28.565Z,14.93
2019-04-28T15:41:58.158Z,15.59
2019-04-28T15:44:27.774Z,16.04
2019-04-28T15:46:57.464Z,16.12
2019-04-28T15:49:27.233Z,15.31
2019-04-28T15:51:56.883Z,16.19
2019-04-28T15:54:26.551Z,15.29
2019-04-28T15:56:56.179Z,15.57
2019-04-28T15:59:26.061Z,15.89
2019-04-28T16:01:55.770Z,16.24
2019-04-28T16:04:25.414Z,16.69
2019-04-28T16:06:55.082Z,16.74
2019-04-28T16:09:24.520Z,16.56
2019-04-28T16:11:54.210Z,16.38
2019-04-28T16:14:23.870Z,15.92
2019-04-28T16:16:53.511Z,15.48
2019-04-28T16:19:23.163Z,15.14
2019-04-28T16:21:52.839Z,15.33
2019-04-28T16:24:22.420Z,15.30
2019-04-28T16:26:52.060Z,15.40
2019-04-28T16:29:21.831Z,15.24
2019-04-28T16:31:51.585Z,15.09
2019-04-28T16:34:21.259Z,14.86
2019-04-28T16:36:50.806Z,14.70
2019-04-28T16:39:20.549Z,14.57
2019-04-28T16:41:50.230Z,14.75
2019-04-28T16:44:19.879Z,14.81
2019-04-28T16:46:49.557Z,15.25
2019-04-28T16:49:19.299Z,15.20
2019-04-28T16:51:49.035Z,15.35
2019-04-28T16:54:18.690Z,15.51
2019-04-28T16:57:06.354Z,15.42
2019-04-28T16:59:57.982Z,15.18
2019-04-28T17:02:35.641Z,15.18
2019-04-28T17:05:06.097Z,15.11
2019-04-28T17:07:35.740Z,15.24
2019-04-28T17:10:05.629Z,15.28
2019-04-28T17:12:35.143Z,15.24
2019-04-28T17:15:05.368Z,15.00
2019-04-28T17:17:35.110Z,15.06
2019-04-28T17:20:05.183Z,15.02
2019-04-28T17:22:34.910Z,15.23
2019-04-28T17:25:04.720Z,15.33
2019-04-28T17:27:34.362Z,15.45
2019-04-28T17:30:04.266Z,15.30
2019-04-28T17:32:33.984Z,15.37
2019-04-28T17:35:03.548Z,15.33
2019-04-28T17:37:33.191Z,15.29
2019-04-28T17:40:02.855Z,15.35
2019-04-28T17:42:32.592Z,15.30
2019-04-28T17:45:02.189Z,15.30
2019-04-28T17:47:31.741Z,15.26
2019-04-28T17:50:01.406Z,15.20
2019-04-28T17:52:31.026Z,15.09
2019-04-28T17:55:00.545Z,15.04
2019-04-28T17:57:30.192Z,14.90
2019-04-28T18:00:01.809Z,14.89
2019-04-28T18:02:56.436Z,14.80
2019-04-28T18:05:36.925Z,14.70
2019-04-28T18:08:20.024Z,14.58
2019-04-28T18:10:38.086Z,14.56
2019-04-28T18:13:10.516Z,14.51
2019-04-28T18:15:57.962Z,14.44
2019-04-28T18:18:46.849Z,14.34
2019-04-28T18:21:16.699Z,14.25
2019-04-28T18:23:46.836Z,14.17
2019-04-28T18:26:16.390Z,14.10
2019-04-28T18:28:46.044Z,14.02
2019-04-28T18:31:33.805Z,13.91
2019-04-28T18:34:10.377Z,13.72
2019-04-28T18:36:49.719Z,13.65
2019-04-28T18:39:36.830Z,13.68
2019-04-28T18:42:15.472Z,13.46
2019-04-28T18:44:44.996Z,13.49
2019-04-28T18:47:14.700Z,12.68
2019-04-28T18:49:44.347Z,12.96
2019-04-28T18:52:14.944Z,13.18
2019-04-28T18:54:44.604Z,13.26
2019-04-28T18:57:14.251Z,13.34
2019-04-28T18:59:43.916Z,13.36
2019-04-28T19:02:19.344Z,13.36
2019-04-28T19:04:48.986Z,13.33
2019-04-28T19:07:23.201Z,13.27
2019-04-28T19:10:05.296Z,13.10
2019-04-28T19:12:52.631Z,13.10
2019-04-28T19:15:47.219Z,13.01
2019-04-28T19:18:22.759Z,13.05
2019-04-28T19:20:52.469Z,13.07
2019-04-28T19:23:22.168Z,13.02
2019-04-28T19:25:51.805Z,12.87
2019-04-28T19:28:21.399Z,12.84
2019-04-28T19:30:51.151Z,12.77
2019-04-28T19:33:20.901Z,12.74
2019-04-28T19:35:50.337Z,12.71
2019-04-28T19:38:20.054Z,12.73
2019-04-28T19:40:49.591Z,12.67
2019-04-28T19:43:19.703Z,12.69
2019-04-28T19:45:50.819Z,12.69
2019-04-28T19:48:20.432Z,12.66
2019-04-28T19:50:50.082Z,12.66
2019-04-28T19:53:19.642Z,12.60
2019-04-28T19:56:07.562Z,12.57
2019-04-28T19:58:41.626Z,12.56
2019-04-28T20:01:15.284Z,12.51
2019-04-28T20:03:45.005Z,12.51
2019-04-28T20:06:14.660Z,12.48
2019-04-28T20:08:44.342Z,12.45
2019-04-28T20:11:14.012Z,12.43
2019-04-28T20:13:43.629Z,12.41
2019-04-28T20:16:13.327Z,12.40
2019-04-28T20:18:42.980Z,12.39
2019-04-28T20:21:12.597Z,12.40
2019-04-28T20:23:42.207Z,12.39
2019-04-28T20:26:11.849Z,12.38
2019-04-28T20:28:41.488Z,12.36
2019-04-28T20:31:11.197Z,12.32
2019-04-28T20:33:40.781Z,12.28
2019-04-28T20:36:19.621Z,12.25
2019-04-28T20:38:51.333Z,12.16
2019-04-28T20:41:25.928Z,12.07
2019-04-28T20:43:56.403Z,11.98
2019-04-28T20:46:26.011Z,11.93
2019-04-28T20:48:55.608Z,11.93
2019-04-28T20:51:25.240Z,11.93
2019-04-28T20:53:54.876Z,11.94
2019-04-28T20:56:24.648Z,11.91
2019-04-28T20:58:54.215Z,11.84
2019-04-28T21:01:23.785Z,11.78
2019-04-28T21:03:53.542Z,11.77
2019-04-28T21:06:23.181Z,11.72
2019-04-28T21:08:52.778Z,11.69
2019-04-28T21:11:22.234Z,11.68
2019-04-28T21:13:51.771Z,11.65
2019-04-28T21:16:21.315Z,11.62
2019-04-28T21:18:50.772Z,11.58
2019-04-28T21:21:20.317Z,11.58
2019-04-28T21:23:49.780Z,11.52
2019-04-28T21:26:19.499Z,11.32
2019-04-28T21:28:49.090Z,11.39
2019-04-28T21:31:18.755Z,11.42
2019-04-28T21:33:48.415Z,11.48
2019-04-28T21:36:18.061Z,11.51
2019-04-28T21:38:50.224Z,11.54
2019-04-28T21:41:19.792Z,11.53
2019-04-28T21:43:58.957Z,11.21
2019-04-28T21:46:51.724Z,11.12
2019-04-28T21:49:29.556Z,11.18
2019-04-28T21:51:59.261Z,11.18
2019-04-28T21:54:29.012Z,11.12
2019-04-28T21:56:58.664Z,11.11
2019-04-28T21:59:28.336Z,11.11
2019-04-28T22:01:58.002Z,11.10
2019-04-28T22:04:28.040Z,11.01
2019-04-28T22:06:57.820Z,10.93
2019-04-28T22:09:27.339Z,10.94
2019-04-28T22:11:57.017Z,10.96
2019-04-28T22:14:26.605Z,10.98
2019-04-28T22:16:56.272Z,10.94
2019-04-28T22:19:25.921Z,10.93
2019-04-28T22:21:55.569Z,10.94
2019-04-28T22:24:33.793Z,10.88
2019-04-28T22:27:03.673Z,10.78
2019-04-28T22:29:33.317Z,10.58
2019-04-28T22:32:03.134Z,10.45
2019-04-28T22:34:32.771Z,10.21
2019-04-28T22:37:02.332Z,10.04
2019-04-28T22:39:31.986Z,10.27
2019-04-28T22:42:01.665Z,10.19
2019-04-28T22:44:31.298Z,10.50
2019-04-28T22:47:00.959Z,10.59
2019-04-28T22:49:30.616Z,10.13
2019-04-28T22:52:00.273Z,10.25
2019-04-28T22:54:41.939Z,10.48
2019-04-28T22:57:31.267Z,10.23
2019-04-28T23:00:01.277Z,10.03
2019-04-28T23:02:31.418Z,10.16
2019-04-28T23:05:04.288Z,10.12
2019-04-28T23:07:33.962Z,10.16
2019-04-28T23:10:03.807Z,10.32
2019-04-28T23:12:33.460Z,10.25
2019-04-28T23:15:03.641Z,9.64
2019-04-28T23:17:33.256Z,9.56
2019-04-28T23:20:02.888Z,9.87
2019-04-28T23:22:47.404Z,9.92
2019-04-28T23:25:17.158Z,10.18
2019-04-28T23:27:46.777Z,10.26
2019-04-28T23:30:38.562Z,10.28
2019-04-28T23:33:08.251Z,10.33
2019-04-28T23:35:37.808Z,10.39
2019-04-28T23:38:07.451Z,10.42
2019-04-28T23:40:38.735Z,10.45
2019-04-28T23:43:12.578Z,10.45
2019-04-28T23:45:42.158Z,10.41
2019-04-28T23:48:11.930Z,10.38
2019-04-28T23:50:53.815Z,10.32
2019-04-28T23:53:42.414Z,10.28
2019-04-28T23:56:12.044Z,10.22
2019-04-28T23:58:41.877Z,10.09
